Time;durP1;ratioP1;P1;durP2;ratioP2;P2;SDS_P1;SDS_P2;PMS_P1;PMS_P2;Temp;Humidity;BMP_temperature;BMP_pressure;BME280_temperature;BME280_humidity;BME280_pressure;Samples;Min_cycle;Max_cycle;Signal;HPM_P1;HPM_P2
2022/12/06 00:01:12;;;;;;;;;;;;;;;;;;5108025;27;4997;-59
2022/12/06 00:03:37;;;;;;;;;;;;;;;;;;5086442;28;5251;-59
2022/12/06 00:06:03;;;;;;;;;;;;;;;;;;5081753;28;5214;-58
2022/12/06 00:08:29;;;;;;;;;;;;;;;;;;5085101;28;3516;-59
2022/12/06 00:10:54;;;;;;;;;;;;;;;;;;5079881;28;5035;-58
2022/12/06 00:13:19;;;;;;;;;;;;;;;;;;5081403;28;5176;-58
2022/12/06 00:15:44;;;;;;;;;;;;;;;;;;5069999;28;5125;-59
2022/12/06 00:18:10;;;;;;;;;;;;;;;;;;5070797;28;5208;-58
2022/12/06 00:20:35;;;;;;;;;;;;;;;;;;5070613;28;3139;-59
2022/12/06 00:23:00;;;;;;;;;;;;;;;;;;5077552;28;5050;-59
2022/12/06 00:25:26;;;;;;;;;;;;;;;;;;5080494;28;4998;-59
2022/12/06 00:27:51;;;;;;;;;;;;;;;;;;5076661;28;4632;-59
2022/12/06 00:30:16;;;;;;;;;;;;;;;;;;5077126;28;4494;-58
2022/12/06 00:32:41;;;;;;;;;;;;;;;;;;5069912;28;3350;-59
2022/12/06 00:35:07;;;;;;;;;;;;;;;;;;5068444;28;4923;-59
2022/12/06 00:37:32;;;;;;;;;;;;;;;;;;5072714;28;5112;-59
2022/12/06 00:39:57;;;;;;;;;;;;;;;;;;5077589;28;5093;-59
2022/12/06 00:42:22;;;;;;;;;;;;;;;;;;5082339;28;5527;-58
2022/12/06 00:44:48;;;;;;;;;;;;;;;;;;5081726;28;5169;-59
2022/12/06 00:47:13;;;;;;;;;;;;;;;;;;5072604;28;1409;-59
2022/12/06 00:49:38;;;;;;;;;;;;;;;;;;5081756;28;4832;-59
2022/12/06 00:52:04;;;;;;;;;;;;;;;;;;5075458;28;5071;-58
2022/12/06 00:54:29;;;;;;;;;;;;;;;;;;5108403;27;4414;-58
2022/12/06 00:56:54;;;;;;;;;;;;;;;;;;5085320;28;4890;-59
2022/12/06 00:59:20;;;;;;;;;;;;;;;;;;5077165;28;1118;-58
2022/12/06 01:01:45;;;;;;;;;;;;;;;;;;5071433;28;5236;-59
2022/12/06 01:04:10;;;;;;;;;;;;;;;;;;5088267;28;4914;-58
2022/12/06 01:06:35;;;;;;;;;;;;;;;;;;5076160;28;4974;-58
2022/12/06 01:09:02;;;;;;;;;;;;;;;;;;5068996;28;4520;-59
2022/12/06 01:11:27;;;;;;;;;;;;;;;;;;5075495;28;1157;-59
2022/12/06 01:13:52;;;;;;;;;;;;;;;;;;5077016;28;4955;-59
2022/12/06 01:16:19;;;;;;;;;;;;;;;;;;5085149;28;4521;-59
2022/12/06 01:18:44;;;;;;;;;;;;;;;;;;5086593;28;4909;-58
2022/12/06 01:21:11;;;;;;;;;;;;;;;;;;5087194;28;5287;-58
2022/12/06 01:23:36;;;;;;;;;;;;;;;;;;5084230;28;2094;-58
2022/12/06 01:26:02;;;;;;;;;;;;;;;;;;5068382;28;4914;-59
2022/12/06 01:28:27;;;;;;;;;;;;;;;;;;5073194;28;5021;-58
2022/12/06 01:30:52;;;;;;;;;;;;;;;;;;5082101;28;4591;-59
2022/12/06 01:33:17;;;;;;;;;;;;;;;;;;5075561;28;4473;-59
2022/12/06 01:35:42;;;;;;;;;;;;;;;;;;5075709;28;1460;-59
2022/12/06 01:38:08;;;;;;;;;;;;;;;;;;5075275;28;4915;-59
2022/12/06 01:40:40;;;;;;;;;;;;;;;;;;5070790;28;4432;-59
2022/12/06 01:43:05;;;;;;;;;;;;;;;;;;5080057;28;5121;-59
2022/12/06 01:45:30;;;;;;;;;;;;;;;;;;5082377;28;4695;-59
2022/12/06 01:47:56;;;;;;;;;;;;;;;;;;5079502;28;4785;-59
2022/12/06 01:50:22;;;;;;;;;;;;;;;;;;5081981;28;1166;-59
2022/12/06 01:52:51;;;;;;;;;;;;;;;;;;5081950;28;5217;-59
2022/12/06 01:55:16;;;;;;;;;;;;;;;;;;5085524;28;4638;-58
2022/12/06 01:57:41;;;;;;;;;;;;;;;;;;5087361;28;5088;-59
2022/12/06 02:00:07;;;;;;;;;;;;;;;;;;5079121;28;4894;-59
2022/12/06 02:02:32;;;;;;;;;;;;;;;;;;5070576;28;1194;-58
2022/12/06 02:04:57;;;;;;;;;;;;;;;;;;5076588;28;6012;-58
2022/12/06 02:07:23;;;;;;;;;;;;;;;;;;5083815;28;5149;-58
2022/12/06 02:09:49;;;;;;;;;;;;;;;;;;5084022;28;5119;-58
2022/12/06 02:12:14;;;;;;;;;;;;;;;;;;5091297;28;5030;-58
2022/12/06 02:14:39;;;;;;;;;;;;;;;;;;5076488;28;1798;-58
2022/12/06 02:17:11;;;;;;;;;;;;;;;;;;5078511;28;4867;-59
2022/12/06 02:19:42;;;;;;;;;;;;;;;;;;5078344;28;5185;-58
2022/12/06 02:22:10;;;;;;;;;;;;;;;;;;5083008;28;5055;-59
2022/12/06 02:24:35;;;;;;;;;;;;;;;;;;5083014;28;5146;-59
2022/12/06 02:27:09;;;;;;;;;;;;;;;;;;5078891;28;5065;-59
2022/12/06 02:29:34;;;;;;;;;;;;;;;;;;5077580;28;1503;-59
2022/12/06 02:32:09;;;;;;;;;;;;;;;;;;5071717;28;5073;-59
2022/12/06 02:34:39;;;;;;;;;;;;;;;;;;5087277;28;4474;-59
2022/12/06 02:37:10;;;;;;;;;;;;;;;;;;5075197;28;4447;-59
2022/12/06 02:39:35;;;;;;;;;;;;;;;;;;5078995;28;4935;-59
2022/12/06 02:42:01;;;;;;;;;;;;;;;;;;5090322;28;5198;-59
2022/12/06 02:44:31;;;;;;;;;;;;;;;;;;5077057;28;1965;-59
2022/12/06 02:46:56;;;;;;;;;;;;;;;;;;5097341;28;4836;-59
2022/12/06 02:49:22;;;;;;;;;;;;;;;;;;5076456;28;5028;-59
2022/12/06 02:51:47;;;;;;;;;;;;;;;;;;5091646;28;4510;-59
2022/12/06 02:54:12;;;;;;;;;;;;;;;;;;5083284;28;5022;-59
2022/12/06 02:56:37;;;;;;;;;;;;;;;;;;5100160;28;1123;-59
2022/12/06 02:59:04;;;;;;;;;;;;;;;;;;5077417;28;5136;-59
2022/12/06 03:01:30;;;;;;;;;;;;;;;;;;5075548;28;4834;-59
2022/12/06 03:03:55;;;;;;;;;;;;;;;;;;5083209;28;4936;-58
2022/12/06 03:06:23;;;;;;;;;;;;;;;;;;5083423;28;4988;-59
2022/12/06 03:09:01;;;;;;;;;;;;;;;;;;5080932;28;5010;-58
2022/12/06 03:11:28;;;;;;;;;;;;;;;;;;5083641;28;1470;-59
2022/12/06 03:13:58;;;;;;;;;;;;;;;;;;5114048;27;4941;-58
2022/12/06 03:16:49;;;;;;;;;;;;;;;;;;5086126;28;4896;-58
2022/12/06 03:19:21;;;;;;;;;;;;;;;;;;5075982;28;4964;-58
2022/12/06 03:21:46;;;;;;;;;;;;;;;;;;5069252;28;4578;-58
2022/12/06 03:24:12;;;;;;;;;;;;;;;;;;5086647;28;4647;-56
2022/12/06 03:26:37;;;;;;;;;;;;;;;;;;5076033;28;1165;-57
2022/12/06 03:29:03;;;;;;;;;;;;;;;;;;5079315;28;5242;-58
2022/12/06 03:31:28;;;;;;;;;;;;;;;;;;5084897;28;5168;-58
2022/12/06 03:33:55;;;;;;;;;;;;;;;;;;5082775;28;4969;-59
2022/12/06 03:36:20;;;;;;;;;;;;;;;;;;5077739;28;5165;-59
2022/12/06 03:38:54;;;;;;;;;;;;;;;;;;5075407;28;5059;-53
2022/12/06 03:41:21;;;;;;;;;;;;;;;;;;5090680;28;3457;-59
2022/12/06 03:43:47;;;;;;;;;;;;;;;;;;5099837;28;5306;-59
2022/12/06 03:46:12;;;;;;;;;;;;;;;;;;5084265;28;4928;-58
2022/12/06 03:48:39;;;;;;;;;;;;;;;;;;5085747;28;4987;-58
2022/12/06 03:51:06;;;;;;;;;;;;;;;;;;5084647;28;4956;-58
2022/12/06 03:53:31;;;;;;;;;;;;;;;;;;5076975;28;4594;-58
2022/12/06 03:55:57;;;;;;;;;;;;;;;;;;5079255;28;4468;-58
2022/12/06 03:58:22;;;;;;;;;;;;;;;;;;5084355;28;5049;-58
2022/12/06 04:00:47;;;;;;;;;;;;;;;;;;5086022;28;4968;-58
2022/12/06 04:03:12;;;;;;;;;;;;;;;;;;5080421;28;4877;-58
2022/12/06 04:05:38;;;;;;;;;;;;;;;;;;5088552;28;1918;-58
2022/12/06 04:08:03;;;;;;;;;;;;;;;;;;5069374;28;4951;-58
2022/12/06 04:10:28;;;;;;;;;;;;;;;;;;5069724;28;4825;-58
2022/12/06 04:12:59;;;;;;;;;;;;;;;;;;5074164;28;4516;-58
2022/12/06 04:15:25;;;;;;;;;;;;;;;;;;5073366;28;5638;-59
2022/12/06 04:23:29;;;;;;;;;;;;;;;;;;5029174;28;4564;-59
2022/12/06 04:25:54;;;;;;;;;;;;;;;;;;5074158;28;5188;-59
2022/12/06 04:39:16;;;;;;;;;;;;;;;;;;5078861;28;4917;-59
2022/12/06 04:44:25;;;;;;;;;;;;;;;;;;5071944;28;5626;-59
2022/12/06 04:46:50;;;;;;;;;;;;;;;;;;5089863;28;4773;-59
2022/12/06 04:49:15;;;;;;;;;;;;;;;;;;5076784;28;4769;-59
2022/12/06 04:51:41;;;;;;;;;;;;;;;;;;5079687;28;5045;-59
2022/12/06 04:54:06;;;;;;;;;;;;;;;;;;5074908;28;4851;-59
2022/12/06 04:56:31;;;;;;;;;;;;;;;;;;5068839;28;3314;-59
2022/12/06 04:58:57;;;;;;;;;;;;;;;;;;5071601;28;4483;-60
2022/12/06 05:01:22;;;;;;;;;;;;;;;;;;5070123;28;4491;-59
2022/12/06 05:03:47;;;;;;;;;;;;;;;;;;5068229;28;5114;-59
2022/12/06 05:06:12;;;;;;;;;;;;;;;;;;5074851;28;4608;-59
2022/12/06 05:08:38;;;;;;;;;;;;;;;;;;5070991;28;3426;-59
2022/12/06 05:11:03;;;;;;;;;;;;;;;;;;5084367;28;5074;-59
2022/12/06 05:13:28;;;;;;;;;;;;;;;;;;5084606;28;5026;-59
2022/12/06 05:15:57;;;;;;;;;;;;;;;;;;5084265;28;5072;-59
2022/12/06 05:18:23;;;;;;;;;;;;;;;;;;5084506;28;4871;-60
2022/12/06 05:20:48;;;;;;;;;;;;;;;;;;5071466;28;5087;-59
2022/12/06 05:23:13;;;;;;;;;;;;;;;;;;5078232;28;1312;-59
2022/12/06 05:25:39;;;;;;;;;;;;;;;;;;5079655;28;4796;-59
2022/12/06 05:28:04;;;;;;;;;;;;;;;;;;5098879;28;5357;-59
2022/12/06 05:30:29;;;;;;;;;;;;;;;;;;5075433;28;4948;-59
2022/12/06 05:32:54;;;;;;;;;;;;;;;;;;5077562;28;4586;-59
2022/12/06 05:35:20;;;;;;;;;;;;;;;;;;5077064;28;1567;-59
2022/12/06 05:37:45;;;;;;;;;;;;;;;;;;5089564;28;5069;-59
2022/12/06 05:40:10;;;;;;;;;;;;;;;;;;5066937;28;5043;-59
2022/12/06 05:42:36;;;;;;;;;;;;;;;;;;5076728;28;5519;-59
2022/12/06 05:45:02;;;;;;;;;;;;;;;;;;5086104;28;4663;-59
2022/12/06 05:47:27;;;;;;;;;;;;;;;;;;5083990;28;3398;-59
2022/12/06 05:49:52;;;;;;;;;;;;;;;;;;5086586;28;5202;-59
2022/12/06 05:52:17;;;;;;;;;;;;;;;;;;5084810;28;5023;-59
2022/12/06 05:54:43;;;;;;;;;;;;;;;;;;5077683;28;4507;-58
2022/12/06 05:57:08;;;;;;;;;;;;;;;;;;5074651;28;4588;-58
2022/12/06 05:59:33;;;;;;;;;;;;;;;;;;5077392;28;3458;-59
2022/12/06 06:01:58;;;;;;;;;;;;;;;;;;5073447;28;4956;-59
2022/12/06 06:04:23;;;;;;;;;;;;;;;;;;5075955;28;5020;-59
2022/12/06 06:06:50;;;;;;;;;;;;;;;;;;5080526;28;5132;-58
2022/12/06 06:09:15;;;;;;;;;;;;;;;;;;5085275;28;5064;-59
2022/12/06 06:11:40;;;;;;;;;;;;;;;;;;5087076;28;1196;-59
2022/12/06 06:14:06;;;;;;;;;;;;;;;;;;5083443;28;4969;-59
2022/12/06 06:16:32;;;;;;;;;;;;;;;;;;5078926;28;5035;-59
2022/12/06 06:19:00;;;;;;;;;;;;;;;;;;5090466;28;5356;-59
2022/12/06 06:21:26;;;;;;;;;;;;;;;;;;5074438;28;5064;-59
2022/12/06 06:23:51;;;;;;;;;;;;;;;;;;5083601;28;5131;-59
2022/12/06 06:26:16;;;;;;;;;;;;;;;;;;5091932;28;1457;-59
2022/12/06 06:28:41;;;;;;;;;;;;;;;;;;5086581;28;4972;-59
2022/12/06 06:31:07;;;;;;;;;;;;;;;;;;5078193;28;4977;-58
2022/12/06 06:33:32;;;;;;;;;;;;;;;;;;5077479;28;5069;-59
2022/12/06 06:35:57;;;;;;;;;;;;;;;;;;5089401;28;5323;-59
2022/12/06 06:38:22;;;;;;;;;;;;;;;;;;5091434;28;2957;-58
2022/12/06 06:40:48;;;;;;;;;;;;;;;;;;5084454;28;5011;-59
2022/12/06 06:43:19;;;;;;;;;;;;;;;;;;5089356;28;5090;-59
2022/12/06 06:45:45;;;;;;;;;;;;;;;;;;5079592;28;5137;-58
2022/12/06 06:48:11;;;;;;;;;;;;;;;;;;5077487;28;5072;-59
2022/12/06 06:50:37;;;;;;;;;;;;;;;;;;5091598;28;3683;-58
2022/12/06 06:53:02;;;;;;;;;;;;;;;;;;5083423;28;5928;-58
2022/12/06 06:55:29;;;;;;;;;;;;;;;;;;5087940;28;5011;-59
2022/12/06 06:57:54;;;;;;;;;;;;;;;;;;5083561;28;4911;-59
2022/12/06 07:00:19;;;;;;;;;;;;;;;;;;5079115;28;5042;-59
2022/12/06 07:02:45;;;;;;;;;;;;;;;;;;5086144;28;3442;-58
2022/12/06 07:05:10;;;;;;;;;;;;;;;;;;5095309;28;4889;-59
2022/12/06 07:07:35;;;;;;;;;;;;;;;;;;5088253;28;5104;-59
2022/12/06 07:10:00;;;;;;;;;;;;;;;;;;5084380;28;5420;-59
2022/12/06 07:12:26;;;;;;;;;;;;;;;;;;5088569;27;5011;-59
2022/12/06 07:14:51;;;;;;;;;;;;;;;;;;5086900;28;4465;-58
2022/12/06 07:17:16;;;;;;;;;;;;;;;;;;5088227;28;1393;-59
2022/12/06 07:19:41;;;;;;;;;;;;;;;;;;5083266;28;5022;-60
2022/12/06 07:22:08;;;;;;;;;;;;;;;;;;5082637;27;4977;-60
2022/12/06 07:24:34;;;;;;;;;;;;;;;;;;5077429;28;5756;-59
2022/12/06 07:26:59;;;;;;;;;;;;;;;;;;5097680;28;5556;-60
2022/12/06 07:29:24;;;;;;;;;;;;;;;;;;5085900;28;3390;-59
2022/12/06 07:31:50;;;;;;;;;;;;;;;;;;5089842;28;4922;-58
2022/12/06 07:34:16;;;;;;;;;;;;;;;;;;5087417;28;5018;-60
2022/12/06 07:36:41;;;;;;;;;;;;;;;;;;5084681;28;4600;-58
2022/12/06 07:39:06;;;;;;;;;;;;;;;;;;5076348;28;5022;-59
2022/12/06 07:47:00;;;;;;;;;;;;;;;;;;5071987;28;5144;-59
2022/12/06 07:49:26;;;;;;;;;;;;;;;;;;5074214;28;4968;-59
2022/12/06 07:51:52;;;;;;;;;;;;;;;;;;5084307;28;4426;-59
2022/12/06 07:54:17;;;;;;;;;;;;;;;;;;5108430;27;5729;-59
2022/12/06 07:56:42;;;;;;;;;;;;;;;;;;5097766;28;3603;-61
2022/12/06 07:59:07;;;;;;;;;;;;;;;;;;5087456;28;4982;-59
2022/12/06 08:01:33;;;;;;;;;;;;;;;;;;5105227;27;4479;-61
2022/12/06 08:03:58;;;;;;;;;;;;;;;;;;5083020;28;4996;-59
2022/12/06 08:06:24;;;;;;;;;;;;;;;;;;5083614;28;4966;-65
2022/12/06 08:08:49;;;;;;;;;;;;;;;;;;5086513;28;4583;-60
2022/12/06 08:11:14;;;;;;;;;;;;;;;;;;5082565;28;1744;-63
2022/12/06 08:13:40;;;;;;;;;;;;;;;;;;5076667;28;6100;-61
2022/12/06 08:16:06;;;;;;;;;;;;;;;;;;5068801;28;5038;-60
2022/12/06 08:18:31;;;;;;;;;;;;;;;;;;5060346;28;5098;-61
2022/12/06 08:20:57;;;;;;;;;;;;;;;;;;5082196;28;4483;-59
2022/12/06 08:23:22;;;;;;;;;;;;;;;;;;5080952;28;1181;-61
2022/12/06 08:25:55;;;;;;;;;;;;;;;;;;5079089;28;4484;-59
2022/12/06 08:28:20;;;;;;;;;;;;;;;;;;5085457;28;4996;-62
2022/12/06 08:30:45;;;;;;;;;;;;;;;;;;5075345;28;4453;-59
2022/12/06 08:33:11;;;;;;;;;;;;;;;;;;5068893;28;4653;-59
2022/12/06 08:35:36;;;;;;;;;;;;;;;;;;5076559;28;1209;-60
2022/12/06 08:38:01;;;;;;;;;;;;;;;;;;5074421;28;4516;-60
2022/12/06 08:40:27;;;;;;;;;;;;;;;;;;5077863;28;4871;-59
2022/12/06 08:42:52;;;;;;;;;;;;;;;;;;5075529;28;4666;-59
2022/12/06 08:45:17;;;;;;;;;;;;;;;;;;5064612;28;5199;-60
2022/12/06 08:47:43;;;;;;;;;;;;;;;;;;5075510;28;3595;-59
2022/12/06 08:50:08;;;;;;;;;;;;;;;;;;5075897;28;5009;-60
2022/12/06 08:52:34;;;;;;;;;;;;;;;;;;5108877;27;4637;-60
2022/12/06 08:54:59;;;;;;;;;;;;;;;;;;5082521;28;4604;-60
2022/12/06 08:57:24;;;;;;;;;;;;;;;;;;5077310;28;4996;-59
2022/12/06 08:59:50;;;;;;;;;;;;;;;;;;5067411;28;4563;-59
2022/12/06 09:02:15;;;;;;;;;;;;;;;;;;5062487;28;3496;-58
2022/12/06 09:04:40;;;;;;;;;;;;;;;;;;5068795;28;4485;-59
2022/12/06 09:07:06;;;;;;;;;;;;;;;;;;5089491;28;4658;-59
2022/12/06 09:09:31;;;;;;;;;;;;;;;;;;5079860;28;4867;-60
2022/12/06 09:11:56;;;;;;;;;;;;;;;;;;5082077;27;4623;-60
2022/12/06 09:14:22;;;;;;;;;;;;;;;;;;5096429;28;3400;-59
2022/12/06 09:16:47;;;;;;;;;;;;;;;;;;5083432;28;4380;-59
2022/12/06 09:19:12;;;;;;;;;;;;;;;;;;5078789;28;5107;-60
2022/12/06 09:21:38;;;;;;;;;;;;;;;;;;5077319;28;4443;-59
2022/12/06 09:24:04;;;;;;;;;;;;;;;;;;5070982;28;5105;-59
2022/12/06 09:26:29;;;;;;;;;;;;;;;;;;5070072;28;3935;-59
2022/12/06 09:28:55;;;;;;;;;;;;;;;;;;5064898;28;5073;-60
2022/12/06 09:31:20;;;;;;;;;;;;;;;;;;5082592;28;5028;-60
2022/12/06 09:33:46;;;;;;;;;;;;;;;;;;5075412;28;5068;-60
2022/12/06 09:36:18;;;;;;;;;;;;;;;;;;5071845;28;4600;-61
2022/12/06 09:38:44;;;;;;;;;;;;;;;;;;5074172;28;3526;-65
2022/12/06 09:41:15;;;;;;;;;;;;;;;;;;5085828;28;5302;-65
2022/12/06 09:43:40;;;;;;;;;;;;;;;;;;5072276;28;4699;-61
2022/12/06 09:46:06;;;;;;;;;;;;;;;;;;5074298;28;5209;-61
2022/12/06 09:48:38;;;;;;;;;;;;;;;;;;5084429;28;5064;-62
2022/12/06 09:51:06;;;;;;;;;;;;;;;;;;5084200;28;4993;-60
2022/12/06 09:53:36;;;;;;;;;;;;;;;;;;5080749;28;4554;-62
2022/12/06 09:56:11;;;;;;;;;;;;;;;;;;5073630;28;5134;-60
2022/12/06 09:58:51;;;;;;;;;;;;;;;;;;5088018;28;4484;-59
2022/12/06 10:01:49;;;;;;;;;;;;;;;;;;5084985;28;5076;-59
2022/12/06 10:04:26;;;;;;;;;;;;;;;;;;5070173;28;4966;-59
2022/12/06 10:07:01;;;;;;;;;;;;;;;;;;5076102;28;4912;-60
2022/12/06 10:09:45;;;;;;;;;;;;;;;;;;5090513;28;4575;-58
2022/12/06 10:12:20;;;;;;;;;;;;;;;;;;5074667;28;4639;-58
2022/12/06 10:14:49;;;;;;;;;;;;;;;;;;5080388;28;1251;-58
2022/12/06 10:17:17;;;;;;;;;;;;;;;;;;5081192;28;5083;-59
2022/12/06 10:19:45;;;;;;;;;;;;;;;;;;5085646;28;5066;-59
2022/12/06 10:22:19;;;;;;;;;;;;;;;;;;5076215;28;4991;-60
2022/12/06 10:24:47;;;;;;;;;;;;;;;;;;5081563;28;5226;-59
2022/12/06 10:27:22;;;;;;;;;;;;;;;;;;5092934;28;5006;-59
2022/12/06 10:29:54;;;;;;;;;;;;;;;;;;5082333;28;4564;-58
2022/12/06 10:32:29;;;;;;;;;;;;;;;;;;5084485;28;1126;-59
2022/12/06 10:34:55;;;;;;;;;;;;;;;;;;5085127;28;5049;-59
2022/12/06 10:37:39;;;;;;;;;;;;;;;;;;5076262;28;5088;-60
2022/12/06 10:40:25;;;;;;;;;;;;;;;;;;5091830;28;4643;-59
2022/12/06 10:43:01;;;;;;;;;;;;;;;;;;5074080;28;5224;-58
2022/12/06 10:48:18;;;;;;;;;;;;;;;;;;5088310;28;5001;-58
2022/12/06 10:50:44;;;;;;;;;;;;;;;;;;5085435;28;1629;-58
2022/12/06 10:53:14;;;;;;;;;;;;;;;;;;5088670;28;4898;-58
2022/12/06 10:55:45;;;;;;;;;;;;;;;;;;5085265;28;5107;-59
2022/12/06 10:58:23;;;;;;;;;;;;;;;;;;5088766;28;5456;-59
2022/12/06 11:00:48;;;;;;;;;;;;;;;;;;5084639;28;5014;-59
2022/12/06 11:03:23;;;;;;;;;;;;;;;;;;5086554;28;4508;-60
2022/12/06 11:05:50;;;;;;;;;;;;;;;;;;5083934;28;5131;-62
2022/12/06 11:08:19;;;;;;;;;;;;;;;;;;5075904;28;1727;-59
2022/12/06 11:10:44;;;;;;;;;;;;;;;;;;5078215;28;4398;-61
2022/12/06 11:13:14;;;;;;;;;;;;;;;;;;5083444;28;5067;-61
2022/12/06 11:15:40;;;;;;;;;;;;;;;;;;5074696;28;4991;-60
2022/12/06 11:18:12;;;;;;;;;;;;;;;;;;5087085;28;5038;-62
2022/12/06 11:20:38;;;;;;;;;;;;;;;;;;5082436;28;1227;-60
2022/12/06 11:23:06;;;;;;;;;;;;;;;;;;5079720;28;4404;-63
2022/12/06 11:25:52;;;;;;;;;;;;;;;;;;5083183;28;4964;-60
2022/12/06 11:28:21;;;;;;;;;;;;;;;;;;5087098;27;4802;-61
2022/12/06 11:30:50;;;;;;;;;;;;;;;;;;5085771;28;4487;-60
2022/12/06 11:33:16;;;;;;;;;;;;;;;;;;5081743;28;4451;-59
2022/12/06 11:35:41;;;;;;;;;;;;;;;;;;5088417;28;1183;-59
2022/12/06 11:38:07;;;;;;;;;;;;;;;;;;5080211;28;4811;-59
2022/12/06 11:40:36;;;;;;;;;;;;;;;;;;5089042;28;4817;-59
2022/12/06 11:43:01;;;;;;;;;;;;;;;;;;5085902;28;4994;-58
2022/12/06 11:45:28;;;;;;;;;;;;;;;;;;5081128;28;5220;-59
2022/12/06 11:47:55;;;;;;;;;;;;;;;;;;5063162;28;4671;-60
2022/12/06 11:50:21;;;;;;;;;;;;;;;;;;5082300;28;1486;-59
2022/12/06 11:52:48;;;;;;;;;;;;;;;;;;5082954;28;4700;-60
2022/12/06 11:55:15;;;;;;;;;;;;;;;;;;5085478;28;4446;-59
2022/12/06 11:58:04;;;;;;;;;;;;;;;;;;5082624;28;5035;-59
2022/12/06 12:00:29;;;;;;;;;;;;;;;;;;5083951;28;4975;-58
2022/12/06 12:02:54;;;;;;;;;;;;;;;;;;5069990;28;5167;-60
2022/12/06 12:05:24;;;;;;;;;;;;;;;;;;5080010;28;1992;-63
2022/12/06 12:07:57;;;;;;;;;;;;;;;;;;5069261;28;4471;-59
2022/12/06 12:10:23;;;;;;;;;;;;;;;;;;5091217;28;4741;-60
2022/12/06 12:15:33;;;;;;;;;;;;;;;;;;5072335;28;5648;-59
2022/12/06 12:17:58;;;;;;;;;;;;;;;;;;5078951;28;5031;-60
2022/12/06 12:20:27;;;;;;;;;;;;;;;;;;5072323;28;1328;-60
2022/12/06 12:22:58;;;;;;;;;;;;;;;;;;5079277;28;4917;-59
2022/12/06 12:25:26;;;;;;;;;;;;;;;;;;5074690;28;4910;-59
2022/12/06 12:27:52;;;;;;;;;;;;;;;;;;5082358;28;5038;-60
2022/12/06 12:30:17;;;;;;;;;;;;;;;;;;5076086;28;5060;-59
2022/12/06 12:32:43;;;;;;;;;;;;;;;;;;5082232;28;1277;-58
2022/12/06 12:35:17;;;;;;;;;;;;;;;;;;5080283;28;4825;-59
2022/12/06 12:37:43;;;;;;;;;;;;;;;;;;5060613;28;4744;-60
2022/12/06 12:40:20;;;;;;;;;;;;;;;;;;5065097;28;5088;-60
2022/12/06 12:42:45;;;;;;;;;;;;;;;;;;5059247;28;5085;-61
2022/12/06 12:45:12;;;;;;;;;;;;;;;;;;5062943;28;5524;-61
2022/12/06 12:47:37;;;;;;;;;;;;;;;;;;5063484;28;1322;-60
2022/12/06 12:50:12;;;;;;;;;;;;;;;;;;5060641;28;4860;-60
2022/12/06 12:52:38;;;;;;;;;;;;;;;;;;5059149;28;4925;-59
2022/12/06 12:55:14;;;;;;;;;;;;;;;;;;5074380;28;5566;-59
2022/12/06 12:57:39;;;;;;;;;;;;;;;;;;5061123;28;4853;-59
2022/12/06 13:00:05;;;;;;;;;;;;;;;;;;5064304;28;5621;-60
2022/12/06 13:02:30;;;;;;;;;;;;;;;;;;5065329;28;3088;-59
2022/12/06 13:04:57;;;;;;;;;;;;;;;;;;5065431;28;5282;-59
2022/12/06 13:07:24;;;;;;;;;;;;;;;;;;5058016;28;4512;-59
2022/12/06 13:09:52;;;;;;;;;;;;;;;;;;5094712;28;4705;-59
2022/12/06 13:12:19;;;;;;;;;;;;;;;;;;5053350;28;5022;-60
2022/12/06 13:14:57;;;;;;;;;;;;;;;;;;5064089;28;3436;-59
2022/12/06 13:17:23;;;;;;;;;;;;;;;;;;5050916;28;5114;-58
2022/12/06 13:19:49;;;;;;;;;;;;;;;;;;5059443;28;5119;-59
2022/12/06 13:22:19;;;;;;;;;;;;;;;;;;5053048;28;5102;-60
2022/12/06 13:24:45;;;;;;;;;;;;;;;;;;5064748;28;4822;-60
2022/12/06 13:27:12;;;;;;;;;;;;;;;;;;5091284;28;5126;-60
2022/12/06 13:29:44;;;;;;;;;;;;;;;;;;5048463;28;3395;-59
2022/12/06 13:32:13;;;;;;;;;;;;;;;;;;5059311;28;4895;-58
2022/12/06 13:34:40;;;;;;;;;;;;;;;;;;5062615;28;5113;-59
2022/12/06 13:37:44;;;;;;;;;;;;;;;;;;5060328;28;5464;-59
2022/12/06 13:40:41;;;;;;;;;;;;;;;;;;5063447;28;4900;-59
2022/12/06 13:43:25;;;;;;;;;;;;;;;;;;5020060;28;5404;-60
2022/12/06 13:45:53;;;;;;;;;;;;;;;;;;5052231;28;5036;-59
2022/12/06 13:48:25;;;;;;;;;;;;;;;;;;5092697;27;4881;-59
2022/12/06 13:50:54;;;;;;;;;;;;;;;;;;5060931;28;5085;-61
2022/12/06 13:53:20;;;;;;;;;;;;;;;;;;5055746;28;4626;-61
2022/12/06 13:56:00;;;;;;;;;;;;;;;;;;5058524;28;4442;-62
2022/12/06 13:58:26;;;;;;;;;;;;;;;;;;5067933;28;5086;-61
2022/12/06 14:00:51;;;;;;;;;;;;;;;;;;5063173;28;4846;-62
2022/12/06 14:03:19;;;;;;;;;;;;;;;;;;5059297;28;5029;-62
2022/12/06 14:06:01;;;;;;;;;;;;;;;;;;5059243;28;1922;-61
2022/12/06 14:08:30;;;;;;;;;;;;;;;;;;5059603;28;5100;-62
2022/12/06 14:11:04;;;;;;;;;;;;;;;;;;5059964;28;5043;-61
2022/12/06 14:13:29;;;;;;;;;;;;;;;;;;5052813;28;4991;-61
2022/12/06 14:15:55;;;;;;;;;;;;;;;;;;5056691;28;4771;-62
2022/12/06 14:18:21;;;;;;;;;;;;;;;;;;5063570;28;5470;-62
2022/12/06 14:20:47;;;;;;;;;;;;;;;;;;5056448;28;4883;-62
2022/12/06 14:23:26;;;;;;;;;;;;;;;;;;5056850;28;3661;-61
2022/12/06 14:26:09;;;;;;;;;;;;;;;;;;5054203;28;4519;-62
2022/12/06 14:28:34;;;;;;;;;;;;;;;;;;5075477;28;4912;-61
2022/12/06 14:31:03;;;;;;;;;;;;;;;;;;5061229;28;4444;-64
2022/12/06 14:33:29;;;;;;;;;;;;;;;;;;5070835;27;4725;-62
2022/12/06 14:35:54;;;;;;;;;;;;;;;;;;5058897;28;5189;-63
2022/12/06 14:38:26;;;;;;;;;;;;;;;;;;5054209;28;3530;-62
2022/12/06 14:43:35;;;;;;;;;;;;;;;;;;5048265;28;4453;-62
2022/12/06 14:46:02;;;;;;;;;;;;;;;;;;5048432;28;5216;-60
2022/12/06 14:50:22;;;;;;;;;;;;;;;;;;5053175;28;4574;-61
2022/12/06 14:51:18;;;;;;;;;;;;;;;;;;5079964;28;4592;-61
2022/12/06 14:53:44;;;;;;;;;;;;;;;;;;5047302;28;4500;-62
2022/12/06 14:56:21;;;;;;;;;;;;;;;;;;5053257;28;4794;-62
2022/12/06 14:58:47;;;;;;;;;;;;;;;;;;5052390;28;4414;-63
2022/12/06 15:01:19;;;;;;;;;;;;;;;;;;5049913;28;4749;-59
2022/12/06 15:03:44;;;;;;;;;;;;;;;;;;5048968;28;4584;-62
2022/12/06 15:06:24;;;;;;;;;;;;;;;;;;5092002;27;5972;-63
2022/12/06 15:08:55;;;;;;;;;;;;;;;;;;5067669;28;5338;-62
2022/12/06 15:14:22;;;;;;;;;;;;;;;;;;5065215;28;4511;-62
2022/12/06 15:17:01;;;;;;;;;;;;;;;;;;5060388;28;4521;-62
2022/12/06 15:19:26;;;;;;;;;;;;;;;;;;5063648;28;5084;-60
2022/12/06 15:21:52;;;;;;;;;;;;;;;;;;5062333;28;5167;-59
2022/12/06 15:24:21;;;;;;;;;;;;;;;;;;5074730;28;5075;-59
2022/12/06 15:26:46;;;;;;;;;;;;;;;;;;5056165;28;4546;-59
2022/12/06 15:29:11;;;;;;;;;;;;;;;;;;5065013;28;3438;-60
2022/12/06 15:31:37;;;;;;;;;;;;;;;;;;5057328;28;4652;-60
2022/12/06 15:34:04;;;;;;;;;;;;;;;;;;5057239;28;5092;-61
2022/12/06 15:36:32;;;;;;;;;;;;;;;;;;5055613;28;5022;-60
2022/12/06 15:38:57;;;;;;;;;;;;;;;;;;5060534;28;4477;-64
2022/12/06 15:41:23;;;;;;;;;;;;;;;;;;5056643;28;3470;-62
2022/12/06 15:43:49;;;;;;;;;;;;;;;;;;5062068;28;4903;-67
2022/12/06 15:46:17;;;;;;;;;;;;;;;;;;5052365;28;5049;-65
2022/12/06 15:48:43;;;;;;;;;;;;;;;;;;5052356;28;5572;-66
2022/12/06 15:51:10;;;;;;;;;;;;;;;;;;5058025;28;4867;-67
2022/12/06 15:53:36;;;;;;;;;;;;;;;;;;5057341;28;4528;-67
2022/12/06 15:56:01;;;;;;;;;;;;;;;;;;5052907;28;4852;-59
2022/12/06 15:58:26;;;;;;;;;;;;;;;;;;5065882;27;5173;-61
2022/12/06 16:00:53;;;;;;;;;;;;;;;;;;5059141;28;5341;-61
2022/12/06 16:04:17;;;;;;;;;;;;;;;;;;5050426;27;4627;-62
2022/12/06 16:06:42;;;;;;;;;;;;;;;;;;5039201;28;5058;-62
2022/12/06 16:09:08;;;;;;;;;;;;;;;;;;5045299;28;5178;-60
2022/12/06 16:11:33;;;;;;;;;;;;;;;;;;5062759;28;1938;-59
2022/12/06 16:13:58;;;;;;;;;;;;;;;;;;5055185;28;4819;-61
2022/12/06 16:16:23;;;;;;;;;;;;;;;;;;5048307;28;5018;-62
2022/12/06 16:18:49;;;;;;;;;;;;;;;;;;5047671;28;5011;-61
2022/12/06 16:21:21;;;;;;;;;;;;;;;;;;5055379;28;4871;-61
2022/12/06 16:24:08;;;;;;;;;;;;;;;;;;5060285;28;4553;-60
2022/12/06 16:26:33;;;;;;;;;;;;;;;;;;5062932;28;1732;-66
2022/12/06 16:28:58;;;;;;;;;;;;;;;;;;5058648;28;4976;-62
2022/12/06 16:31:24;;;;;;;;;;;;;;;;;;5051733;28;5118;-62
2022/12/06 16:33:49;;;;;;;;;;;;;;;;;;5041911;28;5086;-62
2022/12/06 16:36:27;;;;;;;;;;;;;;;;;;5044227;28;5014;-59
2022/12/06 16:38:52;;;;;;;;;;;;;;;;;;5059197;28;4724;-60
2022/12/06 16:41:34;;;;;;;;;;;;;;;;;;5044240;28;1542;-62
2022/12/06 16:43:59;;;;;;;;;;;;;;;;;;5051025;28;5013;-64
2022/12/06 16:46:25;;;;;;;;;;;;;;;;;;5060980;28;4576;-62
2022/12/06 16:48:57;;;;;;;;;;;;;;;;;;5057989;28;4805;-63
2022/12/06 16:51:22;;;;;;;;;;;;;;;;;;5050631;28;5542;-58
2022/12/06 16:53:48;;;;;;;;;;;;;;;;;;5037205;28;4494;-59
2022/12/06 16:56:14;;;;;;;;;;;;;;;;;;5033784;28;1951;-61
2022/12/06 16:58:39;;;;;;;;;;;;;;;;;;5036634;28;5024;-61
2022/12/06 17:01:15;;;;;;;;;;;;;;;;;;5039242;28;5242;-59
2022/12/06 17:03:40;;;;;;;;;;;;;;;;;;5040376;28;5002;-59
2022/12/06 17:06:05;;;;;;;;;;;;;;;;;;5056613;28;5115;-59
2022/12/06 17:08:30;;;;;;;;;;;;;;;;;;5057808;28;3479;-60
2022/12/06 17:12:01;;;;;;;;;;;;;;;;;;5050470;28;5104;-65
2022/12/06 17:13:41;;;;;;;;;;;;;;;;;;5049943;28;5375;-57
2022/12/06 17:16:06;;;;;;;;;;;;;;;;;;5041405;28;4907;-59
2022/12/06 17:18:32;;;;;;;;;;;;;;;;;;5045515;28;5118;-59
2022/12/06 17:20:57;;;;;;;;;;;;;;;;;;5046288;28;5482;-59
2022/12/06 17:23:22;;;;;;;;;;;;;;;;;;5048585;28;2487;-60
2022/12/06 17:25:54;;;;;;;;;;;;;;;;;;5039734;28;5198;-57
2022/12/06 17:28:19;;;;;;;;;;;;;;;;;;5047398;28;5199;-57
2022/12/06 17:30:44;;;;;;;;;;;;;;;;;;5047176;28;5157;-58
2022/12/06 17:33:10;;;;;;;;;;;;;;;;;;5042755;28;5137;-58
2022/12/06 17:35:35;;;;;;;;;;;;;;;;;;5044975;28;2570;-61
2022/12/06 17:38:01;;;;;;;;;;;;;;;;;;5046501;28;4655;-58
2022/12/06 17:40:26;;;;;;;;;;;;;;;;;;5057727;28;5003;-59
2022/12/06 17:43:00;;;;;;;;;;;;;;;;;;5030772;28;4747;-60